»·PEaware :: SWA1826 KSNA-KLAS

SWA1826 :: KSNA-KLAS

FLIGHT INFORMATION

Flight Status: Arrived
Operator:
Southwest Airlines
More flights by this operator :: More flights under this callsign
Pilot: Anonymous 475 (475)
Aircraft: BOEING 737-800
(B738)
More flights by this aircraft type
Origin: KSNA John Wayne-Orange Co
United States
Destination: KLAS McCarran Intl
United States
More flights between these airports :: More routes between these airports
Route: +FINZZ2 MISEN KEPEC6
File this flight plan on PilotEdge
Remarks:
Altitude:
(Current/Filed)
29,000ft
Speed:
(Current/Filed)
450kts
Departed: 05-Oct-18 11:39 AM
Arrived: 05-Oct-18 12:29 PM
Distance/Time
Traveled:
196nm/0:50
Distance/Time
To Go:
Arrived

Flight Plot

Page will automatically refresh every two minutes.

Flight plan parsing failed; only flown route is shown


Map Options




Map Legend


Flown Route
Filed Route
Departure Airport
Arrival Airport
Navaid (VOR, NDB)
Fix

Horizontal Profiles

Position Reports

Time Latitude Longitude Heading Altitude Ground
Speed
05-Oct-18 11:12 33.677167 -117.863499 116 64ft 0kts
05-Oct-18 11:13 33.677167 -117.863498 116 64ft 0kts
05-Oct-18 11:14 33.677166 -117.863497 116 64ft 0kts
05-Oct-18 11:15 33.677166 -117.863496 116 64ft 0kts
05-Oct-18 11:16 33.677165 -117.863495 116 64ft 0kts
05-Oct-18 11:17 33.677165 -117.863494 116 64ft 0kts
05-Oct-18 11:18 33.677164 -117.863492 116 64ft 0kts
05-Oct-18 11:19 33.677164 -117.863491 116 64ft 0kts
05-Oct-18 11:20 33.677163 -117.863490 116 64ft 0kts
05-Oct-18 11:21 33.677163 -117.863489 116 64ft 0kts
05-Oct-18 11:22 33.677162 -117.863488 116 64ft 0kts
05-Oct-18 11:23 33.677162 -117.863487 116 64ft 0kts
05-Oct-18 11:24 33.677161 -117.863485 116 64ft 0kts
05-Oct-18 11:25 33.677161 -117.863484 116 64ft 0kts
05-Oct-18 11:26 33.677160 -117.863483 116 64ft 0kts
05-Oct-18 11:27 33.677160 -117.863482 116 64ft 0kts
05-Oct-18 11:28 33.677160 -117.863481 116 64ft 0kts
05-Oct-18 11:29 33.677159 -117.863480 116 64ft 0kts
05-Oct-18 11:30 33.677159 -117.863479 116 64ft 0kts
05-Oct-18 11:31 33.677158 -117.863477 116 64ft 0kts
05-Oct-18 11:32 33.677158 -117.863476 116 64ft 0kts
05-Oct-18 11:33 33.677243 -117.864056 78 64ft 2kts
05-Oct-18 11:34 33.676787 -117.864729 27 64ft 0kts
05-Oct-18 11:35 33.676787 -117.864729 27 64ft 0kts
05-Oct-18 11:36 33.678955 -117.863350 27 64ft 19kts
05-Oct-18 11:37 33.680491 -117.862873 295 64ft 0kts
05-Oct-18 11:38 33.680492 -117.862874 295 64ft 0kts
05-Oct-18 11:39 33.680648 -117.863309 293 64ft 10kts
05-Oct-18 11:40 33.681129 -117.865378 207 64ft 0kts
05-Oct-18 11:41 33.664028 -117.876348 209 314ft 164kts
05-Oct-18 11:42 33.616010 -117.892664 187 3007ft 205kts
05-Oct-18 11:43 33.553293 -117.920093 220 5247ft 271kts
05-Oct-18 11:44 33.500721 -117.989583 254 7890ft 291kts
05-Oct-18 11:45 33.531967 -118.069884 318 10708ft 282kts
05-Oct-18 11:46 33.602418 -118.120630 2 13125ft 322kts
05-Oct-18 11:47 33.686416 -118.074759 23 16040ft 340kts
05-Oct-18 11:48 33.772609 -118.023251 22 18715ft 351kts
05-Oct-18 11:49 33.861895 -117.970806 22 21147ft 362kts
05-Oct-18 11:50 33.946625 -117.894455 41 22557ft 402kts
05-Oct-18 11:51 34.024792 -117.795625 41 24382ft 413kts
05-Oct-18 11:52 34.104844 -117.693854 41 26034ft 423kts
05-Oct-18 11:53 34.185724 -117.590893 40 28045ft 420kts
05-Oct-18 11:54 34.266307 -117.488446 40 29061ft 422kts
05-Oct-18 11:55 34.346480 -117.385990 40 29080ft 418kts
05-Oct-18 11:56 34.426499 -117.283346 40 29099ft 419kts
05-Oct-18 11:57 34.506146 -117.180849 40 29123ft 419kts
05-Oct-18 11:58 34.586246 -117.077453 40 29135ft 419kts
05-Oct-18 11:59 34.666021 -116.974161 40 29131ft 419kts
05-Oct-18 12:00 34.745740 -116.870638 41 29110ft 420kts
05-Oct-18 12:01 34.824809 -116.767649 40 29089ft 407kts
05-Oct-18 12:02 34.900861 -116.668490 40 28651ft 386kts
05-Oct-18 12:03 34.972202 -116.575166 41 27099ft 383kts
05-Oct-18 12:04 35.044290 -116.480333 41 25462ft 376kts
05-Oct-18 12:05 35.114421 -116.388481 39 24143ft 356kts
05-Oct-18 12:06 35.169066 -116.320226 39 24087ft 317kts
05-Oct-18 12:07 35.241123 -116.229803 40 21419ft 346kts
05-Oct-18 12:08 35.296760 -116.159722 40 20362ft 344kts
05-Oct-18 12:09 35.374468 -116.061935 41 18870ft 340kts
05-Oct-18 12:10 35.440080 -115.979221 41 17600ft 336kts
05-Oct-18 12:11 35.494088 -115.911159 42 16553ft 333kts
05-Oct-18 12:12 35.568602 -115.816485 42 15116ft 327kts
05-Oct-18 12:13 35.621000 -115.749622 43 14106ft 323kts
05-Oct-18 12:14 35.681851 -115.671922 43 13085ft 306kts
05-Oct-18 12:15 35.739356 -115.598453 41 12857ft 297kts
05-Oct-18 12:16 35.815369 -115.572339 2 11953ft 285kts
05-Oct-18 12:17 35.895863 -115.567824 1 12823ft 296kts
05-Oct-18 12:18 35.974288 -115.547098 42 12873ft 298kts
05-Oct-18 12:19 36.007050 -115.452738 68 11725ft 301kts
05-Oct-18 12:20 36.029448 -115.355063 87 10851ft 297kts
05-Oct-18 12:21 36.022419 -115.253447 94 9504ft 295kts
05-Oct-18 12:22 36.015256 -115.153543 93 8542ft 289kts
05-Oct-18 12:23 36.008832 -115.055488 93 8027ft 285kts
05-Oct-18 12:24 36.002989 -114.956769 93 8017ft 288kts
05-Oct-18 12:25 35.996971 -114.858145 93 8009ft 289kts
05-Oct-18 12:26 36.022621 -114.775957 12 7317ft 277kts
05-Oct-18 12:27 36.067993 -114.835232 277 5662ft 274kts
05-Oct-18 12:28 36.076996 -114.927813 277 5009ft 267kts
05-Oct-18 12:29 36.081654 -115.018070 261 4478ft 249kts
05-Oct-18 12:30 36.073512 -115.100825 270 2549ft 227kts
05-Oct-18 12:31 36.073648 -115.155341 282 2123ft 21kts

Navigation Log

Ident Type
Flight plan parsing failed, navigation log unavailable